sensor_id;sensor_type;location;lat;lon;timestamp;temperature;humidity
3994;DHT22;2011;48.238;13.948;2023-09-30T00:01:50;18.10;99.90
3994;DHT22;2011;48.238;13.948;2023-09-30T00:04:19;18.10;99.90
3994;DHT22;2011;48.238;13.948;2023-09-30T00:06:47;18.20;99.90
3994;DHT22;2011;48.238;13.948;2023-09-30T00:09:15;18.30;99.90
3994;DHT22;2011;48.238;13.948;2023-09-30T00:11:43;18.30;99.90
3994;DHT22;2011;48.238;13.948;2023-09-30T00:14:10;18.30;99.90
3994;DHT22;2011;48.238;13.948;2023-09-30T00:16:38;18.40;99.90
3994;DHT22;2011;48.238;13.948;2023-09-30T00:19:06;18.40;99.90
3994;DHT22;2011;48.238;13.948;2023-09-30T00:21:38;18.40;99.90
3994;DHT22;2011;48.238;13.948;2023-09-30T00:24:06;18.50;99.90
3994;DHT22;2011;48.238;13.948;2023-09-30T00:26:34;18.50;99.90
3994;DHT22;2011;48.238;13.948;2023-09-30T00:29:01;18.50;99.90
3994;DHT22;2011;48.238;13.948;2023-09-30T00:31:31;18.50;99.90
3994;DHT22;2011;48.238;13.948;2023-09-30T00:33:59;18.50;99.90
3994;DHT22;2011;48.238;13.948;2023-09-30T00:36:27;18.50;99.90
3994;DHT22;2011;48.238;13.948;2023-09-30T00:38:56;18.60;99.90
3994;DHT22;2011;48.238;13.948;2023-09-30T00:41:24;18.60;99.90
3994;DHT22;2011;48.238;13.948;2023-09-30T00:43:51;18.60;99.90
3994;DHT22;2011;48.238;13.948;2023-09-30T00:46:26;18.60;99.90
3994;DHT22;2011;48.238;13.948;2023-09-30T00:48:55;18.70;99.90
3994;DHT22;2011;48.238;13.948;2023-09-30T00:51:25;18.70;99.90
3994;DHT22;2011;48.238;13.948;2023-09-30T00:53:58;18.70;99.90
3994;DHT22;2011;48.238;13.948;2023-09-30T00:56:27;18.70;99.90
3994;DHT22;2011;48.238;13.948;2023-09-30T00:58:56;18.80;99.90
3994;DHT22;2011;48.238;13.948;2023-09-30T01:01:24;18.70;99.90
3994;DHT22;2011;48.238;13.948;2023-09-30T01:03:52;18.70;99.90
3994;DHT22;2011;48.238;13.948;2023-09-30T01:06:20;18.70;99.90
3994;DHT22;2011;48.238;13.948;2023-09-30T01:08:48;18.80;99.90
3994;DHT22;2011;48.238;13.948;2023-09-30T01:11:18;18.80;99.90
3994;DHT22;2011;48.238;13.948;2023-09-30T01:13:46;18.80;99.90
3994;DHT22;2011;48.238;13.948;2023-09-30T01:16:15;18.80;99.90
3994;DHT22;2011;48.238;13.948;2023-09-30T01:18:43;18.70;99.90
3994;DHT22;2011;48.238;13.948;2023-09-30T01:21:11;18.70;99.90
3994;DHT22;2011;48.238;13.948;2023-09-30T01:23:40;18.70;99.90
3994;DHT22;2011;48.238;13.948;2023-09-30T01:26:11;18.60;99.90
3994;DHT22;2011;48.238;13.948;2023-09-30T01:28:39;18.60;99.90
3994;DHT22;2011;48.238;13.948;2023-09-30T01:31:08;18.60;99.90
3994;DHT22;2011;48.238;13.948;2023-09-30T01:33:35;18.60;99.90
3994;DHT22;2011;48.238;13.948;2023-09-30T01:36:04;18.60;99.90
3994;DHT22;2011;48.238;13.948;2023-09-30T01:38:32;18.60;99.90
3994;DHT22;2011;48.238;13.948;2023-09-30T01:41:02;18.60;99.90
3994;DHT22;2011;48.238;13.948;2023-09-30T01:43:29;18.60;99.90
3994;DHT22;2011;48.238;13.948;2023-09-30T01:45:57;18.50;99.90
3994;DHT22;2011;48.238;13.948;2023-09-30T01:48:25;18.50;99.90
3994;DHT22;2011;48.238;13.948;2023-09-30T01:50:53;18.50;99.90
3994;DHT22;2011;48.238;13.948;2023-09-30T01:53:21;18.50;99.90
3994;DHT22;2011;48.238;13.948;2023-09-30T01:55:49;18.40;99.90
3994;DHT22;2011;48.238;13.948;2023-09-30T01:58:18;18.40;99.90
3994;DHT22;2011;48.238;13.948;2023-09-30T02:00:46;18.40;99.90
3994;DHT22;2011;48.238;13.948;2023-09-30T02:03:13;18.40;99.90
3994;DHT22;2011;48.238;13.948;2023-09-30T02:05:41;18.40;99.90
3994;DHT22;2011;48.238;13.948;2023-09-30T02:08:09;18.30;99.90
3994;DHT22;2011;48.238;13.948;2023-09-30T02:10:39;18.30;99.90
3994;DHT22;2011;48.238;13.948;2023-09-30T02:13:07;18.30;99.90
3994;DHT22;2011;48.238;13.948;2023-09-30T02:15:40;18.30;99.90
3994;DHT22;2011;48.238;13.948;2023-09-30T02:18:08;18.30;99.90
3994;DHT22;2011;48.238;13.948;2023-09-30T02:20:36;18.20;99.90
3994;DHT22;2011;48.238;13.948;2023-09-30T02:23:05;18.20;99.90
3994;DHT22;2011;48.238;13.948;2023-09-30T02:25:33;18.20;99.90
3994;DHT22;2011;48.238;13.948;2023-09-30T02:28:01;18.20;99.90
3994;DHT22;2011;48.238;13.948;2023-09-30T02:30:30;18.20;99.90
3994;DHT22;2011;48.238;13.948;2023-09-30T02:32:59;18.20;99.90
3994;DHT22;2011;48.238;13.948;2023-09-30T02:35:27;18.20;99.90
3994;DHT22;2011;48.238;13.948;2023-09-30T02:37:55;18.20;99.90
3994;DHT22;2011;48.238;13.948;2023-09-30T02:40:23;18.20;99.90
3994;DHT22;2011;48.238;13.948;2023-09-30T02:42:51;18.10;99.90
3994;DHT22;2011;48.238;13.948;2023-09-30T02:45:19;18.10;99.90
3994;DHT22;2011;48.238;13.948;2023-09-30T02:47:48;18.10;99.90
3994;DHT22;2011;48.238;13.948;2023-09-30T02:50:17;18.00;99.90
3994;DHT22;2011;48.238;13.948;2023-09-30T02:52:45;18.00;99.90
3994;DHT22;2011;48.238;13.948;2023-09-30T02:55:13;18.00;99.90
3994;DHT22;2011;48.238;13.948;2023-09-30T02:57:41;17.90;99.90
3994;DHT22;2011;48.238;13.948;2023-09-30T03:00:10;17.90;99.90
3994;DHT22;2011;48.238;13.948;2023-09-30T03:02:49;17.80;99.90
3994;DHT22;2011;48.238;13.948;2023-09-30T03:05:20;17.80;99.90
3994;DHT22;2011;48.238;13.948;2023-09-30T03:07:48;17.70;99.90
3994;DHT22;2011;48.238;13.948;2023-09-30T03:10:17;17.70;99.90
3994;DHT22;2011;48.238;13.948;2023-09-30T03:12:46;17.60;99.90
3994;DHT22;2011;48.238;13.948;2023-09-30T03:15:15;17.60;99.90
3994;DHT22;2011;48.238;13.948;2023-09-30T03:17:42;17.60;99.90
3994;DHT22;2011;48.238;13.948;2023-09-30T03:20:11;17.60;99.90
3994;DHT22;2011;48.238;13.948;2023-09-30T03:22:42;17.50;99.90
3994;DHT22;2011;48.238;13.948;2023-09-30T03:25:10;17.60;99.90
3994;DHT22;2011;48.238;13.948;2023-09-30T03:27:38;17.60;99.90
3994;DHT22;2011;48.238;13.948;2023-09-30T03:30:08;17.60;99.90
3994;DHT22;2011;48.238;13.948;2023-09-30T03:32:39;17.60;99.90
3994;DHT22;2011;48.238;13.948;2023-09-30T03:35:08;17.60;99.90
3994;DHT22;2011;48.238;13.948;2023-09-30T03:37:36;17.70;99.90
3994;DHT22;2011;48.238;13.948;2023-09-30T03:40:06;17.70;99.90
3994;DHT22;2011;48.238;13.948;2023-09-30T03:42:45;17.70;99.90
3994;DHT22;2011;48.238;13.948;2023-09-30T03:45:15;17.70;99.90
3994;DHT22;2011;48.238;13.948;2023-09-30T03:47:43;17.80;99.90
3994;DHT22;2011;48.238;13.948;2023-09-30T03:50:11;17.70;99.90
3994;DHT22;2011;48.238;13.948;2023-09-30T03:52:41;17.80;99.90
3994;DHT22;2011;48.238;13.948;2023-09-30T03:55:12;17.80;99.90
3994;DHT22;2011;48.238;13.948;2023-09-30T03:57:41;17.80;99.90
3994;DHT22;2011;48.238;13.948;2023-09-30T04:00:09;17.80;99.90
3994;DHT22;2011;48.238;13.948;2023-09-30T04:02:42;17.80;99.90
3994;DHT22;2011;48.238;13.948;2023-09-30T04:05:14;17.80;99.90
3994;DHT22;2011;48.238;13.948;2023-09-30T04:07:43;17.80;99.90
3994;DHT22;2011;48.238;13.948;2023-09-30T04:10:13;17.80;99.90
3994;DHT22;2011;48.238;13.948;2023-09-30T04:12:41;17.80;99.90
3994;DHT22;2011;48.238;13.948;2023-09-30T04:15:10;17.80;99.90
3994;DHT22;2011;48.238;13.948;2023-09-30T04:17:38;17.70;99.90
3994;DHT22;2011;48.238;13.948;2023-09-30T04:20:07;17.70;99.90
3994;DHT22;2011;48.238;13.948;2023-09-30T04:22:42;17.70;99.90
3994;DHT22;2011;48.238;13.948;2023-09-30T04:25:16;17.70;99.90
3994;DHT22;2011;48.238;13.948;2023-09-30T04:27:44;17.70;99.90
3994;DHT22;2011;48.238;13.948;2023-09-30T04:30:14;17.60;99.90
3994;DHT22;2011;48.238;13.948;2023-09-30T04:32:42;17.70;99.90
3994;DHT22;2011;48.238;13.948;2023-09-30T04:35:10;17.60;99.90
3994;DHT22;2011;48.238;13.948;2023-09-30T04:37:38;17.60;99.90
3994;DHT22;2011;48.238;13.948;2023-09-30T04:40:09;17.50;99.90
3994;DHT22;2011;48.238;13.948;2023-09-30T04:42:42;17.50;99.90
3994;DHT22;2011;48.238;13.948;2023-09-30T04:45:11;17.50;99.90
3994;DHT22;2011;48.238;13.948;2023-09-30T04:47:42;17.50;99.90
3994;DHT22;2011;48.238;13.948;2023-09-30T04:50:10;17.50;99.90
3994;DHT22;2011;48.238;13.948;2023-09-30T04:52:42;17.50;99.90
3994;DHT22;2011;48.238;13.948;2023-09-30T04:55:11;17.50;99.90
3994;DHT22;2011;48.238;13.948;2023-09-30T04:57:44;17.60;99.90
3994;DHT22;2011;48.238;13.948;2023-09-30T05:00:13;17.50;99.90
3994;DHT22;2011;48.238;13.948;2023-09-30T05:02:41;17.50;99.90
3994;DHT22;2011;48.238;13.948;2023-09-30T05:05:10;17.50;99.90
3994;DHT22;2011;48.238;13.948;2023-09-30T05:07:38;17.50;99.90
3994;DHT22;2011;48.238;13.948;2023-09-30T05:10:07;17.50;99.90
3994;DHT22;2011;48.238;13.948;2023-09-30T05:12:37;17.60;99.90
3994;DHT22;2011;48.238;13.948;2023-09-30T05:15:09;17.50;99.90
3994;DHT22;2011;48.238;13.948;2023-09-30T05:17:37;17.60;99.90
3994;DHT22;2011;48.238;13.948;2023-09-30T05:20:06;17.60;99.90
3994;DHT22;2011;48.238;13.948;2023-09-30T05:22:34;17.60;99.90
3994;DHT22;2011;48.238;13.948;2023-09-30T05:25:02;17.50;99.90
3994;DHT22;2011;48.238;13.948;2023-09-30T05:27:29;17.50;99.90
3994;DHT22;2011;48.238;13.948;2023-09-30T05:29:58;17.50;99.90
3994;DHT22;2011;48.238;13.948;2023-09-30T05:32:27;17.50;99.90
3994;DHT22;2011;48.238;13.948;2023-09-30T05:34:55;17.50;99.90
3994;DHT22;2011;48.238;13.948;2023-09-30T05:37:24;17.50;99.90
3994;DHT22;2011;48.238;13.948;2023-09-30T05:39:52;17.50;99.90
3994;DHT22;2011;48.238;13.948;2023-09-30T05:42:20;17.50;99.90
3994;DHT22;2011;48.238;13.948;2023-09-30T05:44:48;17.50;99.90
3994;DHT22;2011;48.238;13.948;2023-09-30T05:47:16;17.50;99.90
3994;DHT22;2011;48.238;13.948;2023-09-30T05:49:45;17.50;99.90
3994;DHT22;2011;48.238;13.948;2023-09-30T05:52:14;17.50;99.90
3994;DHT22;2011;48.238;13.948;2023-09-30T05:54:42;17.50;99.90
3994;DHT22;2011;48.238;13.948;2023-09-30T05:57:10;17.50;99.90
3994;DHT22;2011;48.238;13.948;2023-09-30T05:59:39;17.50;99.90
3994;DHT22;2011;48.238;13.948;2023-09-30T06:02:07;17.40;99.90
3994;DHT22;2011;48.238;13.948;2023-09-30T06:04:36;17.50;99.90
3994;DHT22;2011;48.238;13.948;2023-09-30T06:07:06;17.50;99.90
3994;DHT22;2011;48.238;13.948;2023-09-30T06:09:34;17.50;99.90
3994;DHT22;2011;48.238;13.948;2023-09-30T06:12:02;17.50;99.90
3994;DHT22;2011;48.238;13.948;2023-09-30T06:14:32;17.50;99.90
3994;DHT22;2011;48.238;13.948;2023-09-30T06:17:00;17.60;99.90
3994;DHT22;2011;48.238;13.948;2023-09-30T06:19:28;17.60;99.90
3994;DHT22;2011;48.238;13.948;2023-09-30T06:21:55;17.60;99.90
3994;DHT22;2011;48.238;13.948;2023-09-30T06:24:25;17.70;99.90
3994;DHT22;2011;48.238;13.948;2023-09-30T06:26:53;17.80;99.90
3994;DHT22;2011;48.238;13.948;2023-09-30T06:29:21;17.90;99.90
3994;DHT22;2011;48.238;13.948;2023-09-30T06:31:49;18.00;99.90
3994;DHT22;2011;48.238;13.948;2023-09-30T06:34:17;18.10;99.90
3994;DHT22;2011;48.238;13.948;2023-09-30T06:36:45;18.10;99.90
3994;DHT22;2011;48.238;13.948;2023-09-30T06:39:13;18.10;99.90
3994;DHT22;2011;48.238;13.948;2023-09-30T06:41:43;18.10;99.90
3994;DHT22;2011;48.238;13.948;2023-09-30T06:44:12;18.10;99.90
3994;DHT22;2011;48.238;13.948;2023-09-30T06:46:40;18.20;99.90
3994;DHT22;2011;48.238;13.948;2023-09-30T06:49:08;18.20;99.90
3994;DHT22;2011;48.238;13.948;2023-09-30T06:51:36;18.30;99.90
3994;DHT22;2011;48.238;13.948;2023-09-30T06:54:05;18.40;99.90
3994;DHT22;2011;48.238;13.948;2023-09-30T06:56:34;18.50;99.90
3994;DHT22;2011;48.238;13.948;2023-09-30T06:59:03;18.50;99.90
3994;DHT22;2011;48.238;13.948;2023-09-30T07:01:46;18.60;99.90
3994;DHT22;2011;48.238;13.948;2023-09-30T07:04:15;18.60;99.90
3994;DHT22;2011;48.238;13.948;2023-09-30T07:06:43;18.60;99.90
3994;DHT22;2011;48.238;13.948;2023-09-30T07:09:11;18.70;99.90
3994;DHT22;2011;48.238;13.948;2023-09-30T07:11:39;18.60;99.90
3994;DHT22;2011;48.238;13.948;2023-09-30T07:14:08;18.40;99.90
3994;DHT22;2011;48.238;13.948;2023-09-30T07:16:35;18.30;99.90
3994;DHT22;2011;48.238;13.948;2023-09-30T07:19:04;18.20;99.90
3994;DHT22;2011;48.238;13.948;2023-09-30T07:21:32;18.10;99.90
3994;DHT22;2011;48.238;13.948;2023-09-30T07:23:59;18.30;99.90
3994;DHT22;2011;48.238;13.948;2023-09-30T07:26:28;18.30;99.90
3994;DHT22;2011;48.238;13.948;2023-09-30T07:28:56;18.40;99.90
3994;DHT22;2011;48.238;13.948;2023-09-30T07:31:26;18.30;99.90
3994;DHT22;2011;48.238;13.948;2023-09-30T07:33:54;18.30;99.90
3994;DHT22;2011;48.238;13.948;2023-09-30T07:36:23;18.40;99.90
3994;DHT22;2011;48.238;13.948;2023-09-30T07:38:51;18.50;99.90
3994;DHT22;2011;48.238;13.948;2023-09-30T07:41:19;18.60;99.90
3994;DHT22;2011;48.238;13.948;2023-09-30T07:43:47;18.50;99.90
3994;DHT22;2011;48.238;13.948;2023-09-30T07:46:15;18.50;99.90
3994;DHT22;2011;48.238;13.948;2023-09-30T07:48:44;18.60;99.90
3994;DHT22;2011;48.238;13.948;2023-09-30T07:51:13;18.60;99.90
3994;DHT22;2011;48.238;13.948;2023-09-30T07:53:41;18.80;99.90
3994;DHT22;2011;48.238;13.948;2023-09-30T07:56:09;18.90;99.90
3994;DHT22;2011;48.238;13.948;2023-09-30T07:58:37;19.00;99.90
3994;DHT22;2011;48.238;13.948;2023-09-30T08:01:08;19.10;99.90
3994;DHT22;2011;48.238;13.948;2023-09-30T08:03:38;19.10;99.90
3994;DHT22;2011;48.238;13.948;2023-09-30T08:06:09;19.10;99.90
3994;DHT22;2011;48.238;13.948;2023-09-30T08:08:38;19.20;99.90
3994;DHT22;2011;48.238;13.948;2023-09-30T08:11:06;19.30;99.90
3994;DHT22;2011;48.238;13.948;2023-09-30T08:13:35;19.40;99.90
3994;DHT22;2011;48.238;13.948;2023-09-30T08:16:03;19.50;99.90
3994;DHT22;2011;48.238;13.948;2023-09-30T08:18:31;19.60;99.90
3994;DHT22;2011;48.238;13.948;2023-09-30T08:21:00;19.80;99.90
3994;DHT22;2011;48.238;13.948;2023-09-30T08:23:42;19.90;99.90
3994;DHT22;2011;48.238;13.948;2023-09-30T08:26:24;19.90;99.90
3994;DHT22;2011;48.238;13.948;2023-09-30T08:29:07;20.00;99.90
3994;DHT22;2011;48.238;13.948;2023-09-30T08:31:38;20.10;99.90
3994;DHT22;2011;48.238;13.948;2023-09-30T08:34:10;20.20;99.90
3994;DHT22;2011;48.238;13.948;2023-09-30T08:36:53;20.30;99.90
3994;DHT22;2011;48.238;13.948;2023-09-30T08:43:15;20.50;99.90
3994;DHT22;2011;48.238;13.948;2023-09-30T08:45:50;20.50;99.90
3994;DHT22;2011;48.238;13.948;2023-09-30T08:48:22;20.40;99.90
3994;DHT22;2011;48.238;13.948;2023-09-30T08:50:53;20.30;99.90
3994;DHT22;2011;48.238;13.948;2023-09-30T08:53:23;20.20;99.90
3994;DHT22;2011;48.238;13.948;2023-09-30T08:55:53;20.00;99.90
3994;DHT22;2011;48.238;13.948;2023-09-30T08:58:24;19.80;99.90
3994;DHT22;2011;48.238;13.948;2023-09-30T09:00:52;19.60;99.90
3994;DHT22;2011;48.238;13.948;2023-09-30T09:03:20;19.70;99.90
3994;DHT22;2011;48.238;13.948;2023-09-30T09:05:53;19.80;99.90
3994;DHT22;2011;48.238;13.948;2023-09-30T09:08:22;19.90;99.90
3994;DHT22;2011;48.238;13.948;2023-09-30T09:10:56;20.20;99.90
3994;DHT22;2011;48.238;13.948;2023-09-30T09:13:26;20.40;99.90
3994;DHT22;2011;48.238;13.948;2023-09-30T09:16:06;20.50;99.90
3994;DHT22;2011;48.238;13.948;2023-09-30T09:18:34;20.60;99.90
3994;DHT22;2011;48.238;13.948;2023-09-30T09:21:10;20.60;99.90
3994;DHT22;2011;48.238;13.948;2023-09-30T09:23:44;20.80;99.90
3994;DHT22;2011;48.238;13.948;2023-09-30T09:26:12;20.90;99.90
3994;DHT22;2011;48.238;13.948;2023-09-30T09:28:57;20.90;99.90
3994;DHT22;2011;48.238;13.948;2023-09-30T09:31:27;21.00;99.90
3994;DHT22;2011;48.238;13.948;2023-09-30T09:33:57;21.10;99.90
3994;DHT22;2011;48.238;13.948;2023-09-30T09:36:38;21.10;99.90
3994;DHT22;2011;48.238;13.948;2023-09-30T09:39:08;20.80;99.90
3994;DHT22;2011;48.238;13.948;2023-09-30T09:41:50;20.60;99.90
3994;DHT22;2011;48.238;13.948;2023-09-30T09:44:22;20.60;99.90
3994;DHT22;2011;48.238;13.948;2023-09-30T09:46:51;20.50;99.90
3994;DHT22;2011;48.238;13.948;2023-09-30T09:49:20;20.40;99.90
3994;DHT22;2011;48.238;13.948;2023-09-30T09:51:49;20.40;99.90
3994;DHT22;2011;48.238;13.948;2023-09-30T09:54:17;20.60;99.90
3994;DHT22;2011;48.238;13.948;2023-09-30T09:56:45;20.70;99.90
3994;DHT22;2011;48.238;13.948;2023-09-30T09:59:13;20.70;99.90
3994;DHT22;2011;48.238;13.948;2023-09-30T10:01:43;20.60;99.90
3994;DHT22;2011;48.238;13.948;2023-09-30T10:04:11;20.60;99.90
3994;DHT22;2011;48.238;13.948;2023-09-30T10:06:41;20.50;99.90
3994;DHT22;2011;48.238;13.948;2023-09-30T10:09:11;20.60;99.90
3994;DHT22;2011;48.238;13.948;2023-09-30T10:11:41;20.80;99.90
3994;DHT22;2011;48.238;13.948;2023-09-30T10:14:29;21.00;99.90
3994;DHT22;2011;48.238;13.948;2023-09-30T10:17:01;21.00;99.90
3994;DHT22;2011;48.238;13.948;2023-09-30T10:19:30;20.90;99.90
3994;DHT22;2011;48.238;13.948;2023-09-30T10:22:20;20.80;99.90
3994;DHT22;2011;48.238;13.948;2023-09-30T10:24:50;20.70;99.90
3994;DHT22;2011;48.238;13.948;2023-09-30T10:27:39;20.60;99.90
3994;DHT22;2011;48.238;13.948;2023-09-30T10:30:10;20.60;99.90
3994;DHT22;2011;48.238;13.948;2023-09-30T10:33:10;20.70;99.90
3994;DHT22;2011;48.238;13.948;2023-09-30T10:35:52;20.90;99.90
3994;DHT22;2011;48.238;13.948;2023-09-30T10:38:39;21.00;99.90
3994;DHT22;2011;48.238;13.948;2023-09-30T10:41:08;21.10;99.90
3994;DHT22;2011;48.238;13.948;2023-09-30T10:43:39;21.20;99.90
3994;DHT22;2011;48.238;13.948;2023-09-30T10:46:34;21.20;99.90
3994;DHT22;2011;48.238;13.948;2023-09-30T10:49:34;21.20;99.90
3994;DHT22;2011;48.238;13.948;2023-09-30T10:52:04;21.30;99.90
3994;DHT22;2011;48.238;13.948;2023-09-30T10:54:33;21.40;99.90
3994;DHT22;2011;48.238;13.948;2023-09-30T10:57:02;21.50;99.90
3994;DHT22;2011;48.238;13.948;2023-09-30T10:59:32;21.60;99.90
3994;DHT22;2011;48.238;13.948;2023-09-30T11:02:01;21.70;99.90
3994;DHT22;2011;48.238;13.948;2023-09-30T11:04:29;21.90;99.90
3994;DHT22;2011;48.238;13.948;2023-09-30T11:07:01;21.80;99.90
3994;DHT22;2011;48.238;13.948;2023-09-30T11:09:34;21.70;99.90
3994;DHT22;2011;48.238;13.948;2023-09-30T11:12:03;21.70;99.90
3994;DHT22;2011;48.238;13.948;2023-09-30T11:14:32;21.70;99.90
3994;DHT22;2011;48.238;13.948;2023-09-30T11:17:01;21.50;99.90
3994;DHT22;2011;48.238;13.948;2023-09-30T11:19:35;21.50;99.90
3994;DHT22;2011;48.238;13.948;2023-09-30T11:22:07;21.50;99.90
3994;DHT22;2011;48.238;13.948;2023-09-30T11:24:36;21.50;99.90
3994;DHT22;2011;48.238;13.948;2023-09-30T11:27:04;21.70;99.90
3994;DHT22;2011;48.238;13.948;2023-09-30T11:29:32;21.80;99.90
3994;DHT22;2011;48.238;13.948;2023-09-30T11:32:00;21.90;99.90
3994;DHT22;2011;48.238;13.948;2023-09-30T11:34:33;22.00;99.90
3994;DHT22;2011;48.238;13.948;2023-09-30T11:37:02;22.00;99.90
3994;DHT22;2011;48.238;13.948;2023-09-30T11:39:33;22.00;99.90
3994;DHT22;2011;48.238;13.948;2023-09-30T11:42:01;22.00;99.80
3994;DHT22;2011;48.238;13.948;2023-09-30T11:44:30;21.90;99.40
3994;DHT22;2011;48.238;13.948;2023-09-30T11:47:00;21.90;99.80
3994;DHT22;2011;48.238;13.948;2023-09-30T11:49:32;22.00;99.90
3994;DHT22;2011;48.238;13.948;2023-09-30T11:52:04;22.00;99.80
3994;DHT22;2011;48.238;13.948;2023-09-30T11:54:36;22.10;99.90
3994;DHT22;2011;48.238;13.948;2023-09-30T11:57:07;22.10;99.20
3994;DHT22;2011;48.238;13.948;2023-09-30T11:59:41;22.20;99.90
3994;DHT22;2011;48.238;13.948;2023-09-30T12:02:11;22.30;99.90
3994;DHT22;2011;48.238;13.948;2023-09-30T12:04:41;22.40;99.90
3994;DHT22;2011;48.238;13.948;2023-09-30T12:07:10;22.30;99.70
3994;DHT22;2011;48.238;13.948;2023-09-30T12:09:41;22.30;99.90
3994;DHT22;2011;48.238;13.948;2023-09-30T12:12:09;22.30;99.90
3994;DHT22;2011;48.238;13.948;2023-09-30T12:14:38;22.30;99.90
3994;DHT22;2011;48.238;13.948;2023-09-30T12:17:07;22.20;99.50
3994;DHT22;2011;48.238;13.948;2023-09-30T12:19:37;22.20;99.90
3994;DHT22;2011;48.238;13.948;2023-09-30T12:22:05;22.20;99.90
3994;DHT22;2011;48.238;13.948;2023-09-30T12:24:33;22.40;99.90
3994;DHT22;2011;48.238;13.948;2023-09-30T12:27:03;22.50;99.30
3994;DHT22;2011;48.238;13.948;2023-09-30T12:29:32;22.50;99.90
3994;DHT22;2011;48.238;13.948;2023-09-30T12:32:00;22.60;99.60
3994;DHT22;2011;48.238;13.948;2023-09-30T12:34:31;22.70;99.30
3994;DHT22;2011;48.238;13.948;2023-09-30T12:36:59;22.50;98.70
3994;DHT22;2011;48.238;13.948;2023-09-30T12:39:28;22.40;98.70
3994;DHT22;2011;48.238;13.948;2023-09-30T12:41:59;22.30;98.70
3994;DHT22;2011;48.238;13.948;2023-09-30T12:44:29;22.30;98.80
3994;DHT22;2011;48.238;13.948;2023-09-30T12:46:59;22.40;98.60
3994;DHT22;2011;48.238;13.948;2023-09-30T12:49:27;22.50;99.00
3994;DHT22;2011;48.238;13.948;2023-09-30T12:51:55;22.50;98.80
3994;DHT22;2011;48.238;13.948;2023-09-30T12:54:30;22.50;98.50
3994;DHT22;2011;48.238;13.948;2023-09-30T12:56:58;22.60;99.00
3994;DHT22;2011;48.238;13.948;2023-09-30T12:59:28;22.50;99.20
3994;DHT22;2011;48.238;13.948;2023-09-30T13:01:56;22.50;98.90
3994;DHT22;2011;48.238;13.948;2023-09-30T13:04:23;22.40;98.50
3994;DHT22;2011;48.238;13.948;2023-09-30T13:06:59;22.30;98.80
3994;DHT22;2011;48.238;13.948;2023-09-30T13:09:26;22.30;98.30
3994;DHT22;2011;48.238;13.948;2023-09-30T13:11:53;22.30;98.70
3994;DHT22;2011;48.238;13.948;2023-09-30T13:14:20;22.30;98.50
3994;DHT22;2011;48.238;13.948;2023-09-30T13:16:47;22.30;98.50
3994;DHT22;2011;48.238;13.948;2023-09-30T13:19:14;22.20;98.60
3994;DHT22;2011;48.238;13.948;2023-09-30T13:21:41;22.20;98.60
3994;DHT22;2011;48.238;13.948;2023-09-30T13:24:09;22.20;98.30
3994;DHT22;2011;48.238;13.948;2023-09-30T13:26:37;22.20;98.20
3994;DHT22;2011;48.238;13.948;2023-09-30T13:29:04;22.20;98.20
3994;DHT22;2011;48.238;13.948;2023-09-30T13:31:31;22.30;98.10
3994;DHT22;2011;48.238;13.948;2023-09-30T13:33:58;22.30;98.70
3994;DHT22;2011;48.238;13.948;2023-09-30T13:36:25;22.30;98.10
3994;DHT22;2011;48.238;13.948;2023-09-30T13:38:52;22.40;98.30
3994;DHT22;2011;48.238;13.948;2023-09-30T13:41:21;22.30;98.10
3994;DHT22;2011;48.238;13.948;2023-09-30T13:43:48;22.30;97.80
3994;DHT22;2011;48.238;13.948;2023-09-30T13:46:15;22.20;97.00
3994;DHT22;2011;48.238;13.948;2023-09-30T13:48:42;22.20;97.20
3994;DHT22;2011;48.238;13.948;2023-09-30T13:51:10;22.10;97.30
3994;DHT22;2011;48.238;13.948;2023-09-30T13:53:37;22.10;97.50
3994;DHT22;2011;48.238;13.948;2023-09-30T13:56:04;22.20;97.40
3994;DHT22;2011;48.238;13.948;2023-09-30T13:58:34;22.30;97.60
3994;DHT22;2011;48.238;13.948;2023-09-30T14:01:01;22.40;97.40
3994;DHT22;2011;48.238;13.948;2023-09-30T14:03:28;22.40;96.90
3994;DHT22;2011;48.238;13.948;2023-09-30T14:05:56;22.50;97.20
3994;DHT22;2011;48.238;13.948;2023-09-30T14:08:23;22.60;97.10
3994;DHT22;2011;48.238;13.948;2023-09-30T14:10:51;22.60;96.50
3994;DHT22;2011;48.238;13.948;2023-09-30T14:13:18;22.60;96.80
3994;DHT22;2011;48.238;13.948;2023-09-30T14:15:46;22.60;96.60
3994;DHT22;2011;48.238;13.948;2023-09-30T14:18:13;22.40;95.90
3994;DHT22;2011;48.238;13.948;2023-09-30T14:20:40;22.20;96.50
3994;DHT22;2011;48.238;13.948;2023-09-30T14:23:07;22.30;96.10
3994;DHT22;2011;48.238;13.948;2023-09-30T14:25:34;22.30;96.50
3994;DHT22;2011;48.238;13.948;2023-09-30T14:28:02;22.40;96.70
3994;DHT22;2011;48.238;13.948;2023-09-30T14:30:29;22.50;96.30
3994;DHT22;2011;48.238;13.948;2023-09-30T14:32:57;22.40;96.10
3994;DHT22;2011;48.238;13.948;2023-09-30T14:35:24;22.40;96.00
3994;DHT22;2011;48.238;13.948;2023-09-30T14:37:51;22.30;96.40
3994;DHT22;2011;48.238;13.948;2023-09-30T14:40:20;22.40;96.50
3994;DHT22;2011;48.238;13.948;2023-09-30T14:42:47;22.50;96.50
3994;DHT22;2011;48.238;13.948;2023-09-30T14:45:14;22.40;96.50
3994;DHT22;2011;48.238;13.948;2023-09-30T14:47:41;22.40;96.80
3994;DHT22;2011;48.238;13.948;2023-09-30T14:50:10;22.30;96.90
3994;DHT22;2011;48.238;13.948;2023-09-30T14:52:37;22.20;96.90
3994;DHT22;2011;48.238;13.948;2023-09-30T14:55:04;22.10;96.90
3994;DHT22;2011;48.238;13.948;2023-09-30T14:57:31;22.20;97.30
3994;DHT22;2011;48.238;13.948;2023-09-30T15:00:01;22.20;97.50
3994;DHT22;2011;48.238;13.948;2023-09-30T15:02:32;22.00;97.40
3994;DHT22;2011;48.238;13.948;2023-09-30T15:04:59;22.00;98.00
3994;DHT22;2011;48.238;13.948;2023-09-30T15:07:30;22.00;98.10
3994;DHT22;2011;48.238;13.948;2023-09-30T15:09:57;22.00;98.10
3994;DHT22;2011;48.238;13.948;2023-09-30T15:12:24;22.00;98.20
3994;DHT22;2011;48.238;13.948;2023-09-30T15:14:51;22.00;98.40
3994;DHT22;2011;48.238;13.948;2023-09-30T15:17:18;21.90;98.50
3994;DHT22;2011;48.238;13.948;2023-09-30T15:19:45;21.90;98.80
3994;DHT22;2011;48.238;13.948;2023-09-30T15:22:12;21.90;98.70
3994;DHT22;2011;48.238;13.948;2023-09-30T15:24:41;21.90;98.80
3994;DHT22;2011;48.238;13.948;2023-09-30T15:27:08;21.80;99.10
3994;DHT22;2011;48.238;13.948;2023-09-30T15:29:36;21.80;99.00
3994;DHT22;2011;48.238;13.948;2023-09-30T15:32:03;21.80;99.40
3994;DHT22;2011;48.238;13.948;2023-09-30T15:34:30;21.80;99.40
3994;DHT22;2011;48.238;13.948;2023-09-30T15:36:57;21.60;99.40
3994;DHT22;2011;48.238;13.948;2023-09-30T15:39:24;21.60;99.60
3994;DHT22;2011;48.238;13.948;2023-09-30T15:41:53;21.50;99.60
3994;DHT22;2011;48.238;13.948;2023-09-30T15:44:20;21.50;99.60
3994;DHT22;2011;48.238;13.948;2023-09-30T15:46:47;21.50;99.90
3994;DHT22;2011;48.238;13.948;2023-09-30T15:49:14;21.50;99.90
3994;DHT22;2011;48.238;13.948;2023-09-30T15:51:41;21.30;99.90
3994;DHT22;2011;48.238;13.948;2023-09-30T15:54:08;21.10;99.90
3994;DHT22;2011;48.238;13.948;2023-09-30T15:56:35;21.00;99.90
3994;DHT22;2011;48.238;13.948;2023-09-30T15:59:05;21.00;99.90
3994;DHT22;2011;48.238;13.948;2023-09-30T16:01:32;20.90;99.90
3994;DHT22;2011;48.238;13.948;2023-09-30T16:03:59;20.80;99.90